Time;durP1;ratioP1;P1;durP2;ratioP2;P2;SDS_P1;SDS_P2;PMS_P1;PMS_P2;Temp;Humidity;BMP_temperature;BMP_pressure;BME280_temperature;BME280_humidity;BME280_pressure;Samples;Min_cycle;Max_cycle;Signal;HPM_P1;HPM_P2
2020/12/19 00:02:07;;;;;;;5.55;3.42;;;;;;;8.46;47.10;101299.69;5052115;28;20036;-66
2020/12/19 00:04:40;;;;;;;6.05;3.45;;;;;;;8.46;47.22;101301.53;5072020;28;20041;-66
2020/12/19 00:07:08;;;;;;;5.10;3.20;;;;;;;8.47;47.16;101306.88;5079690;28;20067;-66
2020/12/19 00:09:36;;;;;;;5.43;3.40;;;;;;;8.47;47.25;101309.59;5064972;28;20068;-66
2020/12/19 00:12:04;;;;;;;5.88;3.92;;;;;;;8.49;46.90;101293.13;5065867;28;20067;-66
2020/12/19 00:14:32;;;;;;;6.10;3.72;;;;;;;8.47;47.01;101293.25;5067951;28;20431;-66
2020/12/19 00:16:59;;;;;;;5.43;3.53;;;;;;;8.47;47.11;101292.38;5059833;28;20045;-66
2020/12/19 00:19:27;;;;;;;5.60;3.38;;;;;;;8.47;47.04;101290.53;5064361;28;20507;-66
2020/12/19 00:21:54;;;;;;;5.68;3.47;;;;;;;8.46;47.10;101288.78;5063715;28;20040;-66
2020/12/19 00:24:22;;;;;;;6.28;3.75;;;;;;;8.46;46.96;101282.44;5062990;28;20044;-65
2020/12/19 00:26:49;;;;;;;6.03;3.35;;;;;;;8.46;47.23;101280.59;5055919;28;20115;-65
2020/12/19 00:29:18;;;;;;;5.85;3.50;;;;;;;8.44;47.13;101271.66;5052683;28;20499;-66
2020/12/19 00:31:45;;;;;;;5.90;3.45;;;;;;;8.44;47.03;101277.09;5074381;28;20119;-65
2020/12/19 00:34:13;;;;;;;6.38;3.65;;;;;;;8.44;47.15;101274.38;5079538;28;20051;-65
2020/12/19 00:36:40;;;;;;;6.80;4.00;;;;;;;8.44;46.97;101271.66;5084738;28;20040;-66
2020/12/19 00:39:09;;;;;;;6.93;3.60;;;;;;;8.43;47.17;101274.44;5072316;28;20036;-66
2020/12/19 00:41:36;;;;;;;6.03;3.53;;;;;;;8.42;47.08;101270.84;5073275;28;20044;-66
2020/12/19 00:44:03;;;;;;;7.07;3.67;;;;;;;8.44;47.17;101258.00;5076315;28;20086;-66
2020/12/19 00:46:32;;;;;;;6.57;3.80;;;;;;;8.44;47.33;101262.59;5074046;28;20032;-65
2020/12/19 00:48:59;;;;;;;6.57;3.72;;;;;;;8.43;47.25;101261.72;5075238;28;20074;-65
2020/12/19 00:51:27;;;;;;;6.65;3.65;;;;;;;8.43;47.33;101259.00;5072563;28;20036;-65
2020/12/19 00:53:55;;;;;;;7.50;3.95;;;;;;;8.43;47.14;101250.81;5072985;28;20040;-65
2020/12/19 00:56:24;;;;;;;6.22;3.15;;;;;;;8.44;47.34;101247.09;5055420;28;20041;-65
2020/12/19 00:58:52;;;;;;;5.53;3.50;;;;;;;8.42;47.35;101240.84;5072191;28;20118;-65
2020/12/19 01:01:22;;;;;;;5.30;3.30;;;;;;;8.43;47.42;101239.91;5050384;28;20075;-65
2020/12/19 01:03:53;;;;;;;6.95;4.05;;;;;;;8.43;47.31;101237.19;5073120;28;20510;-65
2020/12/19 01:06:21;;;;;;;6.35;4.00;;;;;;;8.44;47.38;101240.78;5089685;28;20052;-65
2020/12/19 01:08:50;;;;;;;6.35;3.60;;;;;;;8.43;47.33;101233.53;5074142;28;20040;-66
2020/12/19 01:11:33;;;;;;;5.63;3.28;;;;;;;8.39;47.43;101223.88;5061696;28;20037;-65
2020/12/19 01:14:01;;;;;;;6.13;3.35;;;;;;;8.41;47.35;101227.31;5065432;28;20426;-65
2020/12/19 01:16:30;;;;;;;5.78;3.38;;;;;;;8.41;47.29;101225.47;5065673;28;20044;-65
2020/12/19 01:18:59;;;;;;;6.35;3.75;;;;;;;8.42;47.33;101231.81;5052582;28;20116;-65
2020/12/19 01:21:28;;;;;;;5.43;3.58;;;;;;;8.41;47.52;101227.31;5062642;28;20061;-64
2020/12/19 01:23:56;;;;;;;5.75;3.67;;;;;;;8.42;47.33;101226.34;5047300;28;20053;-65
2020/12/19 01:26:25;;;;;;;6.70;3.58;;;;;;;8.40;47.54;101218.28;5065352;28;20157;-65
2020/12/19 01:28:53;;;;;;;6.30;3.60;;;;;;;8.42;47.67;101220.91;5063489;28;20044;-65
2020/12/19 01:31:23;;;;;;;6.45;3.75;;;;;;;8.42;47.17;101216.31;5071462;28;20051;-65
2020/12/19 01:33:50;;;;;;;6.53;3.67;;;;;;;8.42;47.58;101212.72;5073963;28;20041;-65
2020/12/19 01:36:20;;;;;;;5.88;3.60;;;;;;;8.42;47.29;101210.88;5067506;28;20036;-65
2020/12/19 01:38:48;;;;;;;5.78;3.50;;;;;;;8.41;47.52;101206.38;5070719;28;20052;-65
2020/12/19 01:41:15;;;;;;;5.57;3.53;;;;;;;8.41;47.52;101205.50;5072323;28;20040;-65
2020/12/19 01:43:46;;;;;;;5.32;3.33;;;;;;;8.42;47.42;101207.25;5072898;28;20041;-65
2020/12/19 01:46:23;;;;;;;6.07;3.50;;;;;;;8.40;47.49;101201.91;5069590;28;20231;-65
2020/12/19 01:48:51;;;;;;;5.43;3.22;;;;;;;8.39;47.53;101207.50;5069962;28;20094;-65
2020/12/19 01:51:19;;;;;;;6.07;3.55;;;;;;;8.41;47.34;101214.56;5072438;28;20111;-65
2020/12/19 01:53:47;;;;;;;6.25;3.80;;;;;;;8.40;47.61;101215.53;5071702;28;20383;-64
2020/12/19 01:56:21;;;;;;;6.65;3.67;;;;;;;8.41;47.55;101220.03;5072043;28;20068;-65
2020/12/19 01:58:48;;;;;;;5.53;3.45;;;;;;;8.40;47.70;101209.22;5065944;28;20522;-65
2020/12/19 02:01:17;;;;;;;6.70;3.90;;;;;;;8.41;47.69;101210.97;5070609;28;20040;-65
2020/12/19 02:03:53;;;;;;;6.00;3.70;;;;;;;8.40;47.46;101212.81;5068610;28;20124;-65
2020/12/19 02:06:24;;;;;;;4.97;3.25;;;;;;;8.43;47.64;101203.56;5074463;28;20514;-64
2020/12/19 02:08:52;;;;;;;6.90;3.90;;;;;;;8.40;47.68;101206.50;5072213;28;20055;-64
2020/12/19 02:11:22;;;;;;;6.85;3.60;;;;;;;8.40;47.66;101195.59;5071140;28;20547;-64
2020/12/19 02:13:49;;;;;;;6.03;3.72;;;;;;;8.40;47.76;101199.19;5069977;28;20040;-65
2020/12/19 02:16:17;;;;;;;5.03;3.00;;;;;;;8.40;47.91;101190.13;5071898;28;20048;-65
2020/12/19 02:18:45;;;;;;;5.68;3.60;;;;;;;8.40;47.59;101196.47;5071697;28;20043;-65
2020/12/19 02:21:13;;;;;;;5.43;3.58;;;;;;;8.40;47.80;101190.13;5070585;28;20055;-65
2020/12/19 02:23:41;;;;;;;5.88;3.67;;;;;;;8.42;47.74;101188.19;5063992;28;20107;-65
2020/12/19 02:26:08;;;;;;;6.93;3.85;;;;;;;8.40;47.96;101182.84;5070929;28;20048;-65
2020/12/19 02:28:36;;;;;;;5.50;3.58;;;;;;;8.41;47.89;101178.25;5070522;28;20471;-65
2020/12/19 02:31:03;;;;;;;6.65;3.72;;;;;;;8.40;47.89;101182.84;5071302;28;20508;-65
2020/12/19 02:33:30;;;;;;;5.45;3.63;;;;;;;8.41;47.96;101179.13;5072172;28;20479;-65
2020/12/19 02:36:07;;;;;;;6.18;3.60;;;;;;;8.41;47.73;101176.41;5076733;28;20040;-65
2020/12/19 02:38:35;;;;;;;5.07;3.28;;;;;;;8.42;47.88;101169.09;5070159;28;20059;-65
2020/12/19 02:41:03;;;;;;;5.70;3.45;;;;;;;8.43;47.89;101170.84;5069661;28;20139;-65
2020/12/19 02:43:30;;;;;;;5.80;3.45;;;;;;;8.43;47.89;101170.84;5070352;28;20044;-64
2020/12/19 02:45:58;;;;;;;6.05;3.80;;;;;;;8.42;47.79;101171.81;5072599;28;20075;-65
2020/12/19 02:48:25;;;;;;;6.18;4.43;;;;;;;8.42;47.99;101178.16;5076424;28;20119;-65
2020/12/19 02:50:53;;;;;;;6.20;3.67;;;;;;;8.43;47.79;101173.56;5069804;28;20048;-66
2020/12/19 02:53:20;;;;;;;5.97;3.78;;;;;;;8.42;48.14;101172.69;5070272;28;20044;-65
2020/12/19 02:55:48;;;;;;;5.47;3.88;;;;;;;8.42;47.83;101177.28;5071053;28;20487;-65
2020/12/19 02:58:16;;;;;;;5.38;3.65;;;;;;;8.45;48.04;101182.56;5070880;28;20068;-65
2020/12/19 03:00:43;;;;;;;6.60;3.78;;;;;;;8.43;48.02;101174.47;5069510;28;20419;-65
2020/12/19 03:03:11;;;;;;;5.80;3.75;;;;;;;8.43;47.75;101171.75;5067162;28;20047;-66
2020/12/19 03:05:38;;;;;;;6.53;4.20;;;;;;;8.42;47.73;101175.44;5067429;28;20134;-65
2020/12/19 03:08:05;;;;;;;5.82;3.70;;;;;;;8.43;47.98;101170.84;5070262;28;20033;-66
2020/12/19 03:10:33;;;;;;;6.22;3.85;;;;;;;8.43;48.05;101165.41;5079696;28;20037;-65
2020/12/19 03:13:00;;;;;;;6.35;4.20;;;;;;;8.43;48.08;101162.66;5069534;28;20045;-65
2020/12/19 03:15:28;;;;;;;6.20;3.60;;;;;;;8.44;48.10;101172.63;5069355;28;20047;-65
2020/12/19 03:17:56;;;;;;;5.30;3.60;;;;;;;8.42;47.51;101167.25;5070521;28;20042;-65
2020/12/19 03:20:23;;;;;;;7.68;3.85;;;;;;;8.44;47.99;101161.72;5069480;28;20048;-65
2020/12/19 03:22:50;;;;;;;6.85;3.60;;;;;;;8.42;48.15;101156.34;5063622;28;20040;-65
2020/12/19 03:25:18;;;;;;;7.18;4.07;;;;;;;8.42;48.15;101159.06;5067734;28;20669;-65
2020/12/19 03:27:45;;;;;;;6.07;3.83;;;;;;;8.42;47.92;101155.47;5067553;28;20059;-65
2020/12/19 03:30:13;;;;;;;6.78;4.32;;;;;;;8.42;47.94;101156.34;5065227;28;20033;-64
2020/12/19 03:32:41;;;;;;;7.25;4.57;;;;;;;8.43;48.06;101158.13;5071201;28;20036;-65
2020/12/19 03:35:08;;;;;;;7.07;4.53;;;;;;;8.43;48.08;101151.75;5073101;28;20044;-66
2020/12/19 03:37:35;;;;;;;8.15;4.68;;;;;;;8.40;47.98;101144.66;5070790;28;20049;-66
2020/12/19 03:40:04;;;;;;;6.70;4.38;;;;;;;8.41;47.69;101138.25;5068124;28;20072;-65
2020/12/19 03:42:31;;;;;;;6.82;4.20;;;;;;;8.40;48.08;101139.22;5070106;28;20503;-65
2020/12/19 03:44:58;;;;;;;7.13;4.57;;;;;;;8.40;47.86;101136.50;5069788;28;20068;-65
2020/12/19 03:47:25;;;;;;;7.20;4.75;;;;;;;8.40;48.04;101135.63;5070665;28;20128;-65
2020/12/19 03:49:53;;;;;;;7.32;4.20;;;;;;;8.41;48.09;101142.81;5062667;28;20045;-64
2020/12/19 03:52:21;;;;;;;6.47;4.15;;;;;;;8.40;48.08;101130.16;5062347;28;20551;-65
2020/12/19 03:54:48;;;;;;;6.97;4.25;;;;;;;8.40;48.11;101135.63;5069066;28;20041;-65
2020/12/19 03:57:16;;;;;;;7.05;4.13;;;;;;;8.41;48.11;101140.09;5071836;28;20131;-66
2020/12/19 03:59:43;;;;;;;8.43;4.80;;;;;;;8.40;48.14;101127.44;5072954;28;20060;-66
2020/12/19 04:02:11;;;;;;;8.20;5.07;;;;;;;8.39;48.12;101134.78;5070874;28;20395;-66
2020/12/19 04:04:38;;;;;;;6.35;4.05;;;;;;;8.41;48.02;101131.91;5076242;28;20055;-65
2020/12/19 04:07:07;;;;;;;6.80;4.25;;;;;;;8.41;48.17;101140.97;5072532;28;20046;-65
2020/12/19 04:09:34;;;;;;;8.63;4.72;;;;;;;8.40;48.05;101135.63;5065997;28;20041;-66
2020/12/19 04:12:02;;;;;;;7.72;4.45;;;;;;;8.39;48.10;101129.31;5074230;28;20091;-65
2020/12/19 04:14:49;;;;;;;7.78;4.85;;;;;;;8.38;47.98;101129.44;5069799;28;20036;-66
2020/12/19 04:17:37;;;;;;;7.10;4.68;;;;;;;8.37;48.05;101124.97;5073891;28;20055;-66
2020/12/19 04:20:24;;;;;;;7.65;4.80;;;;;;;8.37;48.38;101114.94;5069321;28;20049;-66
2020/12/19 04:23:12;;;;;;;7.32;4.60;;;;;;;8.36;48.06;101118.63;5073799;28;20048;-66
2020/12/19 04:25:59;;;;;;;7.72;4.55;;;;;;;8.35;48.08;101119.63;5068076;28;20635;-66
2020/12/19 04:28:46;;;;;;;7.88;5.03;;;;;;;8.34;48.20;101115.13;5071290;28;20412;-66
2020/12/19 04:31:33;;;;;;;8.38;4.75;;;;;;;8.33;48.14;101107.94;5071781;28;20063;-66
2020/12/19 04:34:01;;;;;;;8.25;4.78;;;;;;;8.33;48.07;101113.41;5090444;28;20036;-66
2020/12/19 04:36:29;;;;;;;8.65;4.80;;;;;;;8.33;47.96;101113.41;5074762;28;20044;-65
2020/12/19 04:38:58;;;;;;;7.60;4.78;;;;;;;8.32;48.21;101103.47;5072461;28;20075;-66
2020/12/19 04:41:26;;;;;;;6.93;4.63;;;;;;;8.31;48.33;101109.06;5073565;28;20033;-66
2020/12/19 04:43:53;;;;;;;7.55;4.38;;;;;;;8.31;48.21;101117.25;5073610;28;20040;-66
2020/12/19 04:46:22;;;;;;;7.75;4.30;;;;;;;8.31;48.16;101111.78;5071928;28;20041;-66
2020/12/19 04:48:50;;;;;;;7.53;4.53;;;;;;;8.28;48.12;101112.88;5071018;28;20415;-66
2020/12/19 04:51:17;;;;;;;8.25;4.90;;;;;;;8.28;48.26;101110.16;5072213;28;20138;-66
2020/12/19 04:53:45;;;;;;;6.30;4.32;;;;;;;8.27;48.28;101105.66;5072562;28;20036;-66
2020/12/19 04:56:15;;;;;;;7.88;4.85;;;;;;;8.28;48.58;101098.38;5089692;28;20078;-66
2020/12/19 04:58:42;;;;;;;7.03;4.47;;;;;;;8.25;48.27;101094.88;5067802;28;20095;-65
2020/12/19 05:01:10;;;;;;;7.88;5.00;;;;;;;8.25;48.32;101103.06;5073610;28;20047;-66
2020/12/19 05:03:39;;;;;;;7.32;5.00;;;;;;;8.27;48.24;101102.94;5073917;28;20037;-65
2020/12/19 05:06:09;;;;;;;7.80;4.72;;;;;;;8.24;48.33;101098.59;5076813;28;20048;-66
2020/12/19 05:08:36;;;;;;;7.43;4.72;;;;;;;8.24;48.09;101100.44;5071876;28;20037;-66
2020/12/19 05:11:03;;;;;;;6.82;4.72;;;;;;;8.24;48.35;101098.59;5069383;28;20041;-66
2020/12/19 05:13:32;;;;;;;7.35;4.85;;;;;;;8.24;48.32;101095.84;5072404;28;20090;-66
2020/12/19 05:15:59;;;;;;;7.15;4.43;;;;;;;8.23;48.33;101094.09;5071436;28;20174;-66
2020/12/19 05:18:28;;;;;;;9.07;4.80;;;;;;;8.24;48.32;101086.81;5073238;28;20048;-66
2020/12/19 05:20:55;;;;;;;6.38;4.28;;;;;;;8.24;48.04;101092.25;5067329;28;20502;-66
2020/12/19 05:23:25;;;;;;;7.00;4.57;;;;;;;8.24;48.26;101094.97;5071748;28;20045;-66
2020/12/19 05:25:56;;;;;;;7.72;4.45;;;;;;;8.25;48.29;101094.00;5068362;28;20056;-66
2020/12/19 05:28:23;;;;;;;6.53;4.32;;;;;;;8.23;48.41;101087.78;5072614;28;20115;-65
2020/12/19 05:30:52;;;;;;;7.70;4.93;;;;;;;8.25;48.39;101096.72;5069599;28;20510;-65
2020/12/19 05:33:20;;;;;;;6.93;4.35;;;;;;;8.24;48.40;101086.81;5070709;28;21782;-66
2020/12/19 05:35:48;;;;;;;6.70;4.50;;;;;;;8.24;48.32;101089.53;5073758;28;20119;-66
2020/12/19 05:38:16;;;;;;;8.02;5.40;;;;;;;8.21;48.13;101078.88;5069100;28;20041;-66
2020/12/19 05:40:45;;;;;;;7.20;4.88;;;;;;;8.22;48.29;101084.22;5071253;28;20046;-65
2020/12/19 05:43:12;;;;;;;7.15;4.70;;;;;;;8.20;48.13;101080.72;5071938;28;20041;-66
2020/12/19 05:45:39;;;;;;;6.53;4.18;;;;;;;8.20;48.35;101079.84;5073106;28;20044;-66
2020/12/19 05:48:07;;;;;;;7.68;4.57;;;;;;;8.19;48.37;101084.44;5082922;28;20044;-66
2020/12/19 05:50:35;;;;;;;10.35;5.75;;;;;;;8.18;48.62;101076.38;5071538;28;20395;-66
2020/12/19 05:53:03;;;;;;;8.07;5.50;;;;;;;8.18;48.31;101081.81;5071371;28;20117;-66
2020/12/19 05:55:34;;;;;;;7.78;4.90;;;;;;;8.15;48.52;101074.72;5071832;28;20083;-66
2020/12/19 05:58:04;;;;;;;8.38;5.20;;;;;;;8.16;48.49;101081.03;5088574;28;20132;-66
2020/12/19 06:00:33;;;;;;;6.40;4.35;;;;;;;8.15;48.39;101077.44;5070342;28;20043;-66
2020/12/19 06:03:04;;;;;;;8.05;4.75;;;;;;;8.13;48.57;101068.53;5071465;28;20044;-66
2020/12/19 06:05:34;;;;;;;6.85;4.45;;;;;;;8.13;48.37;101074.00;5076821;28;20405;-66
2020/12/19 06:08:19;;;;;;;5.68;4.00;;;;;;;8.14;48.76;101067.56;5072692;28;20048;-66
2020/12/19 06:10:47;;;;;;;7.28;4.60;;;;;;;8.08;48.56;101062.53;5066409;28;20033;-66
2020/12/19 06:13:16;;;;;;;6.80;4.75;;;;;;;8.12;48.58;101065.91;5072053;28;20063;-66
2020/12/19 06:15:55;;;;;;;7.80;5.13;;;;;;;8.13;48.85;101056.75;5080059;28;20052;-66
2020/12/19 06:18:32;;;;;;;7.35;4.88;;;;;;;8.11;48.78;101054.16;5086213;28;20059;-66
2020/12/19 06:21:06;;;;;;;8.20;5.30;;;;;;;8.09;48.58;101047.94;5087130;28;20111;-66
2020/12/19 06:23:36;;;;;;;7.82;4.93;;;;;;;8.09;48.80;101052.50;5071535;28;20048;-66
2020/12/19 06:26:04;;;;;;;8.73;4.68;;;;;;;8.08;48.58;101043.47;5072339;28;20055;-66
2020/12/19 06:28:48;;;;;;;9.18;5.10;;;;;;;8.10;49.10;101043.34;5071820;28;20115;-66
2020/12/19 06:31:19;;;;;;;7.30;4.25;;;;;;;8.09;48.84;101042.47;5070540;28;20060;-66
2020/12/19 06:33:49;;;;;;;7.45;4.70;;;;;;;8.10;48.88;101046.06;5070474;28;20547;-65
2020/12/19 06:36:23;;;;;;;7.50;4.88;;;;;;;8.10;48.73;101046.06;5070699;28;20028;-66
2020/12/19 06:38:54;;;;;;;7.97;4.65;;;;;;;8.09;48.84;101050.66;5070578;28;20040;-66
2020/12/19 06:41:45;;;;;;;8.75;4.63;;;;;;;8.10;49.43;101056.97;5070880;28;20045;-66
2020/12/19 06:44:15;;;;;;;7.28;4.47;;;;;;;8.09;48.92;101047.94;5069051;28;20052;-66
2020/12/19 06:46:43;;;;;;;7.18;4.72;;;;;;;8.10;48.98;101059.69;5071269;28;20111;-65
2020/12/19 06:49:41;;;;;;;6.95;4.55;;;;;;;8.07;48.98;101055.34;5066133;28;20048;-66
2020/12/19 06:52:11;;;;;;;6.90;4.30;;;;;;;8.11;49.02;101056.00;5067296;28;20063;-66
2020/12/19 06:54:40;;;;;;;7.50;5.10;;;;;;;8.11;48.79;101051.41;5070605;28;20554;-66
2020/12/19 06:57:23;;;;;;;8.07;4.85;;;;;;;8.13;49.46;101051.31;5070770;28;20044;-66
2020/12/19 06:59:50;;;;;;;;;;;;;;;7.85;50.00;101049.72;5069240;28;20064;-66
2020/12/19 07:02:20;;;;;;;7.40;4.68;;;;;;;8.07;49.19;101058.06;5071294;28;20256;-66
2020/12/19 07:04:48;;;;;;;8.55;4.68;;;;;;;8.08;49.14;101046.19;5077133;28;20422;-66
2020/12/19 07:07:23;;;;;;;8.57;5.28;;;;;;;8.12;49.28;101049.56;5072166;28;20044;-66
2020/12/19 07:09:57;;;;;;;9.00;5.57;;;;;;;8.12;49.36;101050.44;5070840;28;20098;-66
2020/12/19 07:12:32;;;;;;;7.93;5.47;;;;;;;8.11;49.57;101065.03;5068632;28;20033;-66
2020/12/19 07:15:00;;;;;;;9.15;4.90;;;;;;;8.09;49.08;101060.69;5070035;28;20106;-66
2020/12/19 07:17:28;;;;;;;7.70;5.40;;;;;;;8.10;49.23;101046.94;5068203;28;20040;-66
2020/12/19 07:20:00;;;;;;;7.32;5.20;;;;;;;8.13;49.51;101051.31;5069901;28;20076;-66
2020/12/19 07:22:28;;;;;;;8.18;4.88;;;;;;;8.10;49.28;101052.41;5070176;28;20041;-66
2020/12/19 07:24:56;;;;;;;8.18;5.18;;;;;;;8.12;49.41;101050.44;5070541;28;20052;-66
2020/12/19 07:27:24;;;;;;;8.85;5.35;;;;;;;8.13;49.38;101076.72;5064634;28;20793;-66
2020/12/19 07:29:58;;;;;;;8.05;4.63;;;;;;;8.17;49.60;101097.28;5065942;28;20052;-66
2020/12/19 07:32:26;;;;;;;7.72;4.90;;;;;;;8.18;49.44;101087.25;5069730;28;20502;-66
2020/12/19 07:34:55;;;;;;;8.82;5.95;;;;;;;8.18;49.37;101092.72;5070475;28;20373;-66
2020/12/19 07:37:22;;;;;;;8.63;5.28;;;;;;;8.19;49.45;101091.72;5069137;28;20056;-66
2020/12/19 07:39:50;;;;;;;9.88;5.70;;;;;;;8.21;49.06;101090.66;5069641;28;20128;-66
2020/12/19 07:42:18;;;;;;;8.68;4.97;;;;;;;8.22;49.54;101095.13;5070535;28;20079;-66
2020/12/19 07:44:48;;;;;;;8.30;5.70;;;;;;;8.23;49.50;101099.56;5069346;28;20032;-66
2020/12/19 07:47:16;;;;;;;8.32;4.75;;;;;;;8.25;49.51;101099.47;5067502;28;20384;-66
2020/12/19 07:49:45;;;;;;;7.20;4.75;;;;;;;8.28;49.81;101087.47;5069237;28;20044;-66
2020/12/19 07:52:15;;;;;;;7.63;5.00;;;;;;;8.30;49.94;101101.88;5062933;28;20098;-66
2020/12/19 07:54:56;;;;;;;7.30;5.40;;;;;;;8.31;50.05;101096.31;5063176;28;20044;-67
2020/12/19 07:57:43;;;;;;;7.97;5.13;;;;;;;8.29;49.63;101092.81;5070377;28;20041;-66
2020/12/19 08:00:11;;;;;;;7.68;5.20;;;;;;;8.30;49.51;101090.97;5064600;28;20048;-66
2020/12/19 08:02:38;;;;;;;8.30;5.30;;;;;;;8.33;49.59;101090.72;5069589;28;20040;-66
2020/12/19 08:05:06;;;;;;;7.78;5.05;;;;;;;8.31;49.93;101079.94;5076123;28;20046;-66
2020/12/19 08:07:33;;;;;;;8.73;5.75;;;;;;;8.34;49.57;101079.72;5069968;28;20496;-66
2020/12/19 08:10:04;;;;;;;8.27;5.07;;;;;;;8.37;49.68;101075.91;5069645;28;20053;-66
2020/12/19 08:12:33;;;;;;;9.15;5.60;;;;;;;8.36;49.97;101074.16;5069646;28;20033;-66
2020/12/19 08:15:02;;;;;;;8.15;5.07;;;;;;;8.38;49.73;101059.44;5097165;28;20045;-66
2020/12/19 08:17:34;;;;;;;8.98;6.07;;;;;;;8.37;49.67;101052.22;5077258;28;20046;-66
2020/12/19 08:20:04;;;;;;;8.98;5.93;;;;;;;8.39;49.79;101050.28;5069937;28;20033;-66
2020/12/19 08:22:34;;;;;;;8.80;5.68;;;;;;;8.39;49.56;101047.53;5068670;28;20047;-66
2020/12/19 08:25:03;;;;;;;7.30;4.97;;;;;;;8.42;49.73;101035.53;5070153;28;20054;-66
2020/12/19 08:27:41;;;;;;;7.53;5.07;;;;;;;8.44;49.86;101030.88;5069114;28;20044;-66
2020/12/19 08:30:14;;;;;;;7.90;5.13;;;;;;;8.43;49.76;101037.25;5073920;28;20040;-66
2020/12/19 08:32:44;;;;;;;7.90;5.03;;;;;;;8.41;49.87;101037.38;5070299;28;20033;-66
2020/12/19 08:35:18;;;;;;;8.55;5.45;;;;;;;8.45;50.04;101036.22;5087771;28;20045;-66
2020/12/19 08:37:46;;;;;;;7.60;5.28;;;;;;;8.45;50.04;101044.38;5068782;28;21805;-66
2020/12/19 08:40:17;;;;;;;6.85;4.60;;;;;;;8.48;50.00;101057.78;5069879;28;20107;-66
2020/12/19 08:42:46;;;;;;;7.57;4.75;;;;;;;8.49;49.85;101061.38;5065753;28;20048;-66
2020/12/19 08:45:25;;;;;;;7.05;4.90;;;;;;;8.52;50.01;101067.47;5072292;28;20055;-66
2020/12/19 08:47:55;;;;;;;7.15;4.65;;;;;;;8.52;50.01;101075.66;5068554;28;20048;-66
2020/12/19 08:50:28;;;;;;;9.35;5.57;;;;;;;8.55;50.08;101077.28;5072778;28;20051;-66
2020/12/19 08:53:09;;;;;;;7.63;5.00;;;;;;;8.57;50.18;101070.72;5073185;28;20058;-66
2020/12/19 08:55:38;;;;;;;7.57;4.50;;;;;;;8.57;50.07;101067.13;5072314;28;20126;-66
2020/12/19 08:58:07;;;;;;;6.47;4.50;;;;;;;8.61;50.09;101071.38;5072707;28;20040;-66
2020/12/19 09:00:35;;;;;;;7.43;5.15;;;;;;;8.64;50.38;101069.28;5071828;28;20481;-66
2020/12/19 09:03:08;;;;;;;6.95;4.63;;;;;;;8.69;50.15;101068.06;5077527;28;20452;-66
2020/12/19 09:05:43;;;;;;;8.32;5.13;;;;;;;8.72;50.29;101059.66;5088516;28;20024;-66
2020/12/19 09:08:13;;;;;;;7.85;4.82;;;;;;;8.74;50.23;101053.09;5067428;28;20047;-67
2020/12/19 09:10:42;;;;;;;8.65;5.40;;;;;;;8.78;50.28;101061.94;5071745;28;20042;-67
2020/12/19 09:13:15;;;;;;;6.50;4.68;;;;;;;8.82;50.29;101058.84;5067879;28;20051;-66
2020/12/19 09:15:44;;;;;;;7.35;4.60;;;;;;;8.84;50.26;101053.28;5071839;28;20547;-66
2020/12/19 09:18:24;;;;;;;7.28;4.75;;;;;;;8.90;50.27;101060.97;5072669;28;20055;-66
2020/12/19 09:20:57;;;;;;;6.68;4.55;;;;;;;8.92;50.30;101059.88;5073742;28;20119;-67
2020/12/19 09:23:25;;;;;;;7.00;4.38;;;;;;;8.94;50.37;101068.84;5067736;28;20095;-67
2020/12/19 09:25:55;;;;;;;7.57;4.50;;;;;;;9.00;50.27;101072.94;5069628;28;20046;-67
2020/12/19 09:28:23;;;;;;;7.07;4.72;;;;;;;9.04;50.21;101079.03;5072474;28;20036;-67
2020/12/19 09:31:17;;;;;;;8.15;4.68;;;;;;;9.09;50.39;101077.69;5070326;28;20044;-67
2020/12/19 09:37:26;;;;;;;6.53;4.35;;;;;;;9.16;50.26;101068.03;5057919;28;20060;-67
2020/12/19 09:40:10;;;;;;;7.53;4.38;;;;;;;9.19;50.05;101069.69;5071567;28;20445;-66
2020/12/19 09:42:38;;;;;;;7.95;4.65;;;;;;;9.22;50.35;101061.22;5087848;28;20059;-67
2020/12/19 09:45:05;;;;;;;8.07;4.40;;;;;;;9.27;50.19;101069.94;5070558;28;20098;-67
2020/12/19 09:47:41;;;;;;;7.70;4.32;;;;;;;9.28;50.00;101069.84;5071404;28;20481;-67
2020/12/19 09:50:09;;;;;;;7.05;4.32;;;;;;;9.34;49.84;101073.94;5071658;28;20491;-67
2020/12/19 09:52:36;;;;;;;6.57;4.43;;;;;;;9.37;50.01;101082.78;5071153;28;20040;-67
2020/12/19 09:55:08;;;;;;;6.40;4.43;;;;;;;9.43;49.92;101088.75;5069010;28;20056;-67
2020/12/19 09:57:35;;;;;;;5.75;3.72;;;;;;;9.45;50.10;101084.03;5071178;28;20049;-67
2020/12/19 10:00:05;;;;;;;7.18;4.00;;;;;;;9.51;50.01;101072.63;5070110;28;20136;-66
2020/12/19 10:02:39;;;;;;;7.55;4.38;;;;;;;9.53;49.76;101071.53;5071590;28;20052;-66
2020/12/19 10:05:08;;;;;;;7.05;4.47;;;;;;;9.58;49.73;101061.09;5074197;28;20036;-66
2020/12/19 10:07:37;;;;;;;6.32;4.05;;;;;;;9.62;49.79;101057.16;5086592;28;20056;-66
2020/12/19 10:10:05;;;;;;;7.68;4.55;;;;;;;9.66;50.05;101058.63;5064245;28;20384;-65
2020/12/19 10:12:33;;;;;;;6.22;4.10;;;;;;;9.70;49.77;101059.31;5073231;28;20032;-65
2020/12/19 10:15:01;;;;;;;7.15;4.60;;;;;;;9.74;49.79;101061.66;5073620;28;20098;-64
2020/12/19 10:17:29;;;;;;;6.40;4.43;;;;;;;9.78;49.75;101066.88;5073114;28;20055;-65
2020/12/19 10:19:56;;;;;;;6.38;4.07;;;;;;;9.80;49.82;101071.22;5072962;28;20044;-65
2020/12/19 10:22:24;;;;;;;6.18;4.15;;;;;;;9.85;49.48;101057.19;5073252;28;20048;-65
2020/12/19 10:24:51;;;;;;;7.05;4.25;;;;;;;9.88;49.75;101054.19;5073186;28;20041;-65
2020/12/19 10:27:19;;;;;;;7.85;4.63;;;;;;;9.93;50.02;101052.84;5072960;28;20048;-65
2020/12/19 10:29:46;;;;;;;6.18;4.50;;;;;;;10.00;49.71;101058.69;5069896;28;20082;-65
2020/12/19 10:32:14;;;;;;;7.82;4.00;;;;;;;10.05;49.36;101059.19;5073284;28;20036;-65
2020/12/19 10:34:42;;;;;;;5.55;3.90;;;;;;;10.10;49.67;101055.09;5080361;28;20064;-65
2020/12/19 10:37:10;;;;;;;5.20;3.63;;;;;;;10.15;49.50;101054.72;5074564;28;20522;-65
2020/12/19 10:39:37;;;;;;;5.63;3.35;;;;;;;10.20;49.61;101052.50;5071926;28;20045;-65
2020/12/19 10:42:05;;;;;;;6.50;4.10;;;;;;;10.25;49.60;101043.91;5072656;28;20040;-65
2020/12/19 10:44:32;;;;;;;5.55;3.80;;;;;;;10.30;49.48;101038.91;5072707;28;20460;-65
2020/12/19 10:47:00;;;;;;;6.60;3.70;;;;;;;10.37;49.27;101032.78;5072507;28;20098;-65
2020/12/19 10:49:28;;;;;;;5.82;3.33;;;;;;;10.42;49.53;101036.03;5071510;28;20032;-65
2020/12/19 10:51:56;;;;;;;6.15;3.83;;;;;;;10.50;49.60;101027.19;5072483;28;20446;-65
2020/12/19 10:54:23;;;;;;;5.47;3.60;;;;;;;10.57;49.25;101030.28;5072566;28;20052;-65
2020/12/19 10:56:59;;;;;;;6.88;3.60;;;;;;;10.63;49.35;101027.03;5072826;28;20075;-65
2020/12/19 10:59:29;;;;;;;6.40;3.53;;;;;;;10.69;49.45;101032.88;5070391;28;20131;-65
2020/12/19 11:01:57;;;;;;;5.78;3.13;;;;;;;10.78;49.24;101020.28;5072149;28;20447;-65
2020/12/19 11:04:25;;;;;;;5.38;3.35;;;;;;;10.86;49.27;101017.81;5076866;28;20048;-65
2020/12/19 11:06:53;;;;;;;4.60;2.95;;;;;;;10.95;49.00;101018.88;5070333;28;20064;-65
2020/12/19 11:09:21;;;;;;;5.05;2.80;;;;;;;11.00;48.67;101017.47;5071298;28;20059;-65
2020/12/19 11:11:53;;;;;;;5.10;3.17;;;;;;;11.10;48.53;101018.44;5072698;28;20040;-65
2020/12/19 11:14:22;;;;;;;5.18;3.17;;;;;;;11.13;48.96;100998.13;5072716;28;20044;-65
2020/12/19 11:16:49;;;;;;;4.85;3.13;;;;;;;11.19;48.59;100997.63;5071878;28;20101;-65
2020/12/19 11:19:21;;;;;;;5.07;2.63;;;;;;;11.25;48.46;100997.94;5070883;28;20098;-65
2020/12/19 11:21:48;;;;;;;4.82;3.30;;;;;;;11.33;48.77;101004.63;5068120;28;20060;-65
2020/12/19 11:24:16;;;;;;;4.82;3.00;;;;;;;11.38;48.18;100992.25;5071693;28;20043;-65
2020/12/19 11:26:44;;;;;;;5.18;3.10;;;;;;;11.46;48.41;100999.78;5071426;28;20044;-65
2020/12/19 11:29:13;;;;;;;4.75;2.88;;;;;;;11.49;48.21;100992.19;5071448;28;20377;-65
2020/12/19 11:31:42;;;;;;;4.22;2.95;;;;;;;11.54;47.91;100995.38;5102084;28;20128;-65
2020/12/19 11:34:12;;;;;;;5.00;3.03;;;;;;;11.57;47.77;100997.84;5076097;28;20127;-66
2020/12/19 11:36:40;;;;;;;4.53;2.85;;;;;;;11.61;47.94;100988.34;5071433;28;20083;-65
2020/12/19 11:39:09;;;;;;;4.40;2.92;;;;;;;11.65;47.40;100987.06;5070333;28;20051;-65
2020/12/19 11:41:37;;;;;;;5.00;3.05;;;;;;;11.66;47.29;100988.81;5070136;28;20041;-65
2020/12/19 11:44:06;;;;;;;5.18;2.90;;;;;;;11.70;47.54;100988.53;5077184;28;20387;-65
2020/12/19 11:46:34;;;;;;;4.80;3.17;;;;;;;11.71;47.50;100980.16;5077799;28;20043;-65
2020/12/19 11:49:01;;;;;;;5.60;3.30;;;;;;;11.73;47.03;100974.56;5073642;28;20044;-65